Relevés horaires Eggishorn (Suisse)


Relevés horaires à Eggishorn - Mardi 06 Août 2019
Heure UTC1 Température [°C] Vent [km/h] Hum. [%] Pres.4 [hPa] Visi. [Km] Nébu. [octa] Préc.5 [mm] Cond.
2m. Res. Ros. Dir.2 Vit. Moy. Raf.3
23:00 6.8 2.7 3.4 O 25.9 -- 61.1 79 700(-0.9/3h) -- -- -- --
22:00 6.2 1.5 3.6 O 31.5 -- 63.0 83 700(-0.3/3h) -- -- -- --
22:00 6.2 1.5 3.6 O 31.5 -- 63.0 83 700(-0.3/3h) -- -- -- --
21:00 5.9 1.4 3.4 O 27.8 -- 81.5 84 700(0.4/3h) -- -- -- --
20:00 5.5 1.4 4.1 NNO 22.2 -- 81.5 91 700(0.9/3h) -- -- -- --
19:00 7.3 6.5 4.8 SSE 5.6 -- 24.1 84 700(-0.4/3h) -- -- -- --
18:00 7.2 4 3.4 E 18.5 -- 85.2 77 700(-0.5/3h) -- -- -- --
17:00 7.7 4.2 4.9 E 22.2 -- 29.6 82 700(-0.5/3h) -- -- -- --
16:00 8.2 6.6 4.9 N 9.3 -- 63.0 80 700(-0.7/3h) -- -- -- --
15:00 8.7 6.9 3.4 OSO 11.1 -- 85.2 69 700(-0.9/3h) -- -- -- --
14:00 10.5 9.7 4.5 OSO 7.4 -- 38.9 66 700(-0.9/3h) -- -- -- --
13:00 10.9 9.5 5.3 S 11.1 -- 27.8 68 700(-0.4/3h) -- -- -- --
12:00 10.0 7.3 6.0 SSO 20.4 -- 42.6 76 700(-0.3/3h) -- -- -- --
11:00 10.8 10.1 6.7 SSO 7.4 -- 22.2 76 700(0.2/3h) -- -- -- --
10:00 9.9 9.9 6.9 NNO 3.7 -- 22.2 82 700(0.2/3h) -- -- -- --
09:00 8.2 6 7.2 S 13.0 -- 42.6 93 700(0.6/3h) -- -- -- --
08:00 8.6 7.5 6.7 SSO 7.4 -- 37.0 88 700(0.2/3h) -- -- -- --
07:00 7.9 4.2 4.8 O 25.9 -- 42.6 81 700(0.1/3h) -- -- -- --
06:00 7.7 4.1 4.5 O 24.1 -- 55.6 80 700(-0.5/3h) -- -- -- --
05:00 8.3 4.7 3.6 O 25.9 -- 50.0 72 700(-0.7/3h) -- -- -- --
04:00 8.3 4.4 3.2 O 29.6 -- 55.6 70 700(-0.7/3h) -- -- -- --
03:00 8.3 5 3.0 O 22.2 -- 53.7 69 700(-0.5/3h) -- -- -- --
02:00 8.2 4.6 3.7 ONO 25.9 -- 46.3 73 700(-0.4/3h) -- -- -- --
01:00 8.2 4.9 3.7 O 22.2 -- 40.7 73 700(-0.4/3h) -- -- -- --

1 Coordinated Universal Time. Actuellement il est 07:00 locale et 05:00 UTC.

2 Le vent souffle depuis la direction indiquée vers la direction oposée.

3 Les rafales max. sont disponible 40 min après l'heure du relevé.

4 Pour les stations d'altitude (plus de 600m) le géopotentiel du niveau le plus proche de la pression obligatoire est indiqué.

5 Les stations disposant d'un diffuseur peuvent indiquer "trace". Cela signifie que des précipitations ont touchés le sol mais que la quantité est inférieure à 0.1 mm.

Copyright

Les données affichées sur cette page sont la propriété exclusive de Météo Suisse.

Récapitulatif de la journée
Température [°C] Vent [km/h] Ensoleillement4 [h] Precipitations totale5 [mm] Pression [Hpa]
Min1 Max.2 Moy.3 Max. Min Max.
7.4 12.0 0 85.2 4 h 48 min 0 700.0 700.0

1 Température minimale relevée entre 18:00 UTC la veille et 18:00 UTC le jour donné.

2 Température maximale relevée entre 06:00 UTC le jour donné et 06:00 UTC le lendemain.

3 Vent moyen de la journée basé sur les relevés horaires.

4 Ensoleillement en heures relevé entre 06:00 UTC la veille et 06:00 UTC le jour donné.

5 Précipitations totales tombées entre 06:00 UTC la jour donné et 06:00 UTC le lendemain.

Graphiques horaires